createdAt,value
2022-11-01T10:51:16.107Z,100658.75
2022-11-01T10:52:21.814Z,100660.99
2022-11-01T10:53:23.899Z,100669.30
2022-11-01T10:54:29.569Z,100664.67
2022-11-01T10:55:47.423Z,100671.56
2022-11-01T10:56:53.222Z,100659.92
2022-11-01T10:57:58.963Z,100662.30
2022-11-01T10:59:04.866Z,100665.02
2022-11-01T11:00:11.104Z,100663.19
2022-11-01T11:01:16.945Z,100667.59
2022-11-01T11:02:27.475Z,100664.95
2022-11-01T11:03:31.033Z,100669.06
2022-11-01T11:04:32.935Z,100665.28
2022-11-01T11:05:35.238Z,100660.87
2022-11-01T11:06:39.993Z,100666.88
2022-11-01T11:07:43.442Z,100666.69
2022-11-01T11:08:53.273Z,100662.77
2022-11-01T11:09:56.087Z,100662.51
2022-11-01T11:11:04.906Z,100661.59
2022-11-01T11:12:13.618Z,100664.17
2022-11-01T11:13:22.468Z,100659.66
2022-11-01T11:14:27.285Z,100666.62
2022-11-01T11:15:37.585Z,100662.38
2022-11-01T11:16:50.129Z,100662.38
2022-11-01T11:17:55.833Z,100662.70
2022-11-01T11:19:14.010Z,100662.31
2022-11-01T11:20:19.824Z,100656.17
2022-11-01T11:21:27.786Z,100661.33
2022-11-01T11:22:26.367Z,100656.82
2022-11-01T11:23:31.046Z,100657.16
2022-11-01T11:24:36.789Z,100653.46
2022-11-01T11:25:39.091Z,100656.04
2022-11-01T11:28:59.033Z,100647.27
2022-11-01T11:30:06.748Z,100657.61
2022-11-01T11:31:15.409Z,100649.73
2022-11-01T11:32:21.181Z,100649.34
2022-11-01T11:33:25.854Z,100643.13
2022-11-01T11:34:37.439Z,100643.91
2022-11-01T11:35:39.999Z,100644.56
2022-11-01T11:36:45.412Z,100642.45
2022-11-01T11:37:54.688Z,100649.61
2022-11-01T11:38:57.344Z,100645.03
2022-11-01T11:40:11.807Z,100649.34
2022-11-01T11:41:29.626Z,100642.19
2022-11-01T11:42:31.851Z,100644.70
2022-11-01T11:43:33.742Z,100646.48
2022-11-01T11:44:50.623Z,100644.05
2022-11-01T11:47:30.302Z,100646.86
2022-11-01T11:48:33.434Z,100648.36
2022-11-01T11:49:35.446Z,100655.65
2022-11-01T11:50:37.744Z,100651.81
2022-11-01T11:51:40.456Z,100656.97
2022-11-01T11:52:45.988Z,100652.59
2022-11-01T11:54:10.670Z,100651.75
2022-11-01T11:55:49.935Z,100654.39
2022-11-01T11:57:08.086Z,100658.39
2022-11-01T11:58:33.792Z,100650.59
2022-11-01T11:59:38.450Z,100662.91
2022-11-01T12:00:44.397Z,100649.47
2022-11-01T12:01:46.808Z,100657.41
2022-11-01T12:02:50.167Z,100654.83
2022-11-01T12:04:11.014Z,100658.46
2022-11-01T12:05:21.751Z,100664.60
2022-11-01T12:06:27.272Z,100660.19
2022-11-01T12:07:33.353Z,100662.84
2022-11-01T12:08:39.161Z,100660.39
2022-11-01T12:09:44.828Z,100660.91
2022-11-01T12:10:48.325Z,100663.34
2022-11-01T12:11:51.101Z,100658.25
2022-11-01T12:12:54.052Z,100663.69
2022-11-01T12:14:02.550Z,100663.82
2022-11-01T12:15:08.555Z,100662.84
2022-11-01T12:16:24.990Z,100663.69
2022-11-01T12:17:37.048Z,100664.60
2022-11-01T12:18:51.913Z,100663.69
2022-11-01T12:20:15.715Z,100667.42
2022-11-01T12:21:27.312Z,100660.53
2022-11-01T12:22:32.641Z,100664.70
2022-11-01T12:23:41.821Z,100656.16
2022-11-01T12:24:51.058Z,100662.40
2022-11-01T12:25:55.931Z,100661.45
2022-11-01T12:27:04.015Z,100653.52
2022-11-01T12:28:28.369Z,100660.09
2022-11-01T12:29:47.562Z,100655.72
2022-11-01T12:30:53.973Z,100658.50
2022-11-01T12:31:59.944Z,100662.09
2022-11-01T12:34:27.195Z,100660.53
2022-11-01T12:35:38.673Z,100665.45
2022-11-01T12:36:44.596Z,100664.41
2022-11-01T12:37:50.679Z,100667.05
2022-11-01T12:39:08.480Z,100664.41
2022-11-01T12:40:35.519Z,100659.89
2022-11-01T12:41:50.208Z,100658.50
2022-11-01T12:43:28.622Z,100660.36
2022-11-01T12:44:37.098Z,100667.58
2022-11-01T12:46:02.591Z,100672.09
2022-11-01T12:47:17.638Z,100667.72
2022-11-01T12:48:26.508Z,100668.56
2022-11-01T12:49:32.221Z,100673.79
2022-11-01T12:50:53.456Z,100665.85
2022-11-01T12:51:59.566Z,100661.34
2022-11-01T12:53:14.821Z,100666.80
2022-11-01T12:54:23.266Z,100663.48
2022-11-01T12:55:32.801Z,100664.16
2022-11-01T12:56:35.238Z,100658.05
2022-11-01T12:57:38.623Z,100659.98
2022-11-01T12:58:40.915Z,100652.11
2022-11-01T12:59:44.735Z,100653.98
2022-11-01T13:01:10.761Z,100657.34
2022-11-01T13:02:19.809Z,100648.75
2022-11-01T13:03:44.849Z,100654.83
2022-11-01T13:05:02.875Z,100652.19
2022-11-01T13:06:24.061Z,100648.17
2022-11-01T13:07:32.837Z,100651.86
2022-11-01T13:09:01.880Z,100643.86
2022-11-01T13:10:10.514Z,100651.02
2022-11-01T13:11:19.266Z,100641.42
2022-11-01T13:12:37.325Z,100643.41
2022-11-01T13:13:43.040Z,100645.41
2022-11-01T13:15:11.085Z,100648.95
2022-11-01T13:16:26.071Z,100643.80
2022-11-01T13:17:47.024Z,100643.93
2022-11-01T13:19:02.035Z,100646.51
2022-11-01T13:20:37.340Z,100643.86
2022-11-01T13:21:49.367Z,100644.94
2022-11-01T13:23:11.871Z,100646.99
2022-11-01T13:24:32.224Z,100647.91
2022-11-01T13:25:40.895Z,100648.82
2022-11-01T13:26:46.814Z,100647.50
2022-11-01T13:28:12.289Z,100638.72
2022-11-01T13:30:33.703Z,100632.30
2022-11-01T13:32:14.876Z,100634.55
2022-11-01T13:33:35.801Z,100637.19
2022-11-01T13:34:53.795Z,100640.80
2022-11-01T13:35:59.544Z,100634.86
2022-11-01T13:37:08.225Z,100623.44
2022-11-01T13:38:23.199Z,100632.34
2022-11-01T13:39:52.700Z,100630.64
2022-11-01T13:41:10.910Z,100633.34
2022-11-01T13:42:35.426Z,100629.03
2022-11-01T13:43:42.145Z,100630.83
2022-11-01T13:46:13.557Z,100622.53
2022-11-01T13:47:46.882Z,100627.31
2022-11-01T13:49:12.160Z,100623.94
2022-11-01T13:50:48.376Z,100622.30
2022-11-01T13:52:15.732Z,100620.64
2022-11-01T13:53:21.543Z,100613.75
2022-11-01T13:54:53.249Z,100611.20
2022-11-01T13:55:59.149Z,100605.07
2022-11-01T13:57:07.949Z,100606.08
2022-11-01T13:58:19.590Z,100604.41
2022-11-01T13:59:38.718Z,100605.83
2022-11-01T14:00:43.858Z,100601.64
2022-11-01T14:01:45.892Z,100599.31
2022-11-01T14:02:57.302Z,100601.28
2022-11-01T20:11:49.007Z,100422.08
2022-11-01T20:14:01.101Z,100423.02
2022-11-01T20:15:03.503Z,100429.50
2022-11-01T20:16:06.951Z,100429.59
2022-11-01T20:17:10.587Z,100438.14
2022-11-01T20:18:13.506Z,100438.23
2022-11-01T20:19:17.714Z,100443.56
2022-11-01T20:20:19.318Z,100433.95
2022-11-01T20:21:21.477Z,100445.43
2022-11-01T20:22:23.929Z,100455.08
2022-11-01T20:23:27.388Z,100450.00
2022-11-01T20:24:29.825Z,100453.64
2022-11-01T20:25:31.810Z,100447.67
2022-11-01T20:26:33.895Z,100453.13
2022-11-01T20:27:36.486Z,100454.70
2022-11-01T20:28:38.649Z,100453.61
2022-11-01T20:29:40.737Z,100441.24
2022-11-01T20:30:42.725Z,100440.31
2022-11-01T20:31:44.760Z,100440.22
2022-11-01T20:32:46.730Z,100443.70
2022-11-01T20:33:48.724Z,100451.70
2022-11-01T20:34:50.966Z,100452.75
2022-11-01T20:35:52.957Z,100452.03
2022-11-01T20:37:22.603Z,100456.48
2022-11-01T20:37:58.776Z,100456.80
2022-11-01T20:39:01.171Z,100451.47
2022-11-01T20:40:04.447Z,100452.33
2022-11-01T20:41:06.787Z,100461.89
2022-11-01T20:42:08.783Z,100458.34
2022-11-01T20:43:10.668Z,100455.88
2022-11-01T20:44:12.612Z,100448.89
2022-11-01T20:45:15.373Z,100441.83
2022-11-01T20:46:18.095Z,100450.59
2022-11-01T20:47:19.992Z,100444.41
2022-11-01T20:48:22.169Z,100445.17
2022-11-01T20:49:24.064Z,100444.23
2022-11-01T20:50:26.589Z,100446.91
2022-11-01T20:51:28.496Z,100446.98
2022-11-01T20:52:45.694Z,100445.30
2022-11-01T20:53:34.502Z,100438.39
2022-11-01T20:54:36.396Z,100435.81
2022-11-01T20:55:38.313Z,100428.78
2022-11-01T20:56:40.323Z,100430.56
2022-11-01T20:57:43.462Z,100433.23
2022-11-01T20:58:45.389Z,100424.52
2022-11-01T20:59:47.271Z,100428.91
2022-11-01T21:00:49.888Z,100422.89
2022-11-01T21:01:54.888Z,100422.12
2022-11-01T21:02:57.286Z,100421.24
2022-11-01T21:03:59.437Z,100422.12
2022-11-01T21:05:11.321Z,100415.91
2022-11-01T21:06:17.900Z,100416.80
2022-11-01T21:07:19.873Z,100401.91
2022-11-01T21:08:24.771Z,100399.28
2022-11-01T21:09:45.476Z,100402.54
2022-11-01T21:11:02.355Z,100391.23
2022-11-01T21:12:41.630Z,100392.26
2022-11-01T21:13:45.533Z,100391.49
2022-11-01T21:14:47.555Z,100397.99
2022-11-01T21:15:50.336Z,100405.78
2022-11-01T21:16:55.693Z,100396.18
2022-11-01T21:18:13.387Z,100406.47
2022-11-01T21:19:21.666Z,100400.34
2022-11-01T21:20:26.106Z,100407.40
2022-11-01T21:21:33.710Z,100399.48
2022-11-01T21:22:35.633Z,100396.82
2022-11-01T21:23:39.901Z,100402.07
2022-11-01T21:24:45.512Z,100396.30
2022-11-01T21:25:52.683Z,100401.50
2022-11-01T21:27:13.917Z,100402.44
2022-11-01T21:28:35.029Z,100398.72
2022-11-01T21:29:43.310Z,100400.42
2022-11-01T21:30:45.329Z,100397.07
2022-11-01T21:31:47.208Z,100388.39
2022-11-01T21:32:51.592Z,100388.39
2022-11-01T21:33:56.552Z,100384.96
2022-11-01T21:35:00.461Z,100377.81
2022-11-01T21:36:21.669Z,100381.33
2022-11-01T21:37:28.225Z,100382.25
2022-11-01T21:38:37.184Z,100377.73
2022-11-01T21:39:39.109Z,100382.25
2022-11-01T21:40:41.957Z,100380.39
2022-11-01T21:41:52.730Z,100380.52
2022-11-01T21:42:56.421Z,100380.56
2022-11-01T21:44:02.616Z,100386.78
2022-11-01T21:46:32.121Z,100374.38
2022-11-01T21:47:34.098Z,100375.56
2022-11-01T21:48:36.085Z,100384.31
2022-11-01T21:49:38.101Z,100382.58
2022-11-01T21:50:40.087Z,100391.30
2022-11-01T21:51:41.961Z,100397.42
2022-11-01T21:52:43.855Z,100392.27
2022-11-01T21:53:45.764Z,100391.34
2022-11-01T21:54:48.408Z,100388.59
2022-11-01T21:55:50.303Z,100391.95
2022-11-01T21:56:54.781Z,100389.52
2022-11-01T21:57:56.734Z,100389.84
2022-11-01T21:58:58.599Z,100388.59
2022-11-01T22:00:00.478Z,100387.41
2022-11-01T22:01:02.496Z,100385.68
2022-11-01T22:02:06.886Z,100382.86
2022-11-01T22:03:09.183Z,100376.69
2022-11-01T22:04:12.390Z,100378.38
2022-11-01T22:05:15.932Z,100374.83
2022-11-01T22:06:18.698Z,100367.81
2022-11-01T22:07:20.573Z,100356.35
2022-11-01T22:08:22.677Z,100358.94
2022-11-01T22:09:26.899Z,100362.33
2022-11-01T22:10:29.581Z,100354.45
2022-11-01T22:11:32.758Z,100351.83
2022-11-01T22:12:34.799Z,100351.88
2022-11-01T22:13:36.673Z,100355.34
2022-11-01T22:14:38.542Z,100345.70
2022-11-01T22:15:40.422Z,100343.84
2022-11-01T22:16:45.493Z,100345.61
2022-11-01T22:17:47.411Z,100348.31
2022-11-01T22:18:50.792Z,100347.48
2022-11-01T22:19:52.739Z,100348.36
2022-11-01T22:20:54.714Z,100350.02
2022-11-01T22:21:56.614Z,100348.19
2022-11-01T22:22:58.487Z,100333.27
2022-11-01T22:24:01.185Z,100340.20
2022-11-01T22:25:04.436Z,100332.21
2022-11-01T22:26:06.636Z,100338.13
2022-11-01T22:27:08.551Z,100333.64
2022-11-01T22:28:10.434Z,100325.64
2022-11-01T22:29:12.319Z,100314.84
2022-11-01T22:30:14.585Z,100315.67
2022-11-01T22:31:16.857Z,100312.08
2022-11-01T22:32:18.843Z,100311.23
2022-11-01T22:33:20.760Z,100308.70
2022-11-01T22:34:22.656Z,100306.16
2022-11-01T22:35:24.548Z,100308.78
2022-11-01T22:36:28.667Z,100297.44
2022-11-01T22:37:33.981Z,100290.41
2022-11-01T22:38:42.571Z,100302.69
2022-11-01T22:39:46.965Z,100294.77
2022-11-01T22:42:00.238Z,100299.62
2022-11-01T22:43:04.762Z,100293.27
2022-11-01T22:44:12.826Z,100297.66
2022-11-01T22:45:15.828Z,100291.52
2022-11-01T22:46:21.690Z,100287.13
2022-11-01T22:47:28.507Z,100284.45
2022-11-01T22:48:30.449Z,100280.01
2022-11-01T22:49:36.304Z,100281.11
2022-11-01T22:50:38.329Z,100279.43
2022-11-01T22:51:46.972Z,100283.02
2022-11-01T22:52:49.023Z,100280.45
2022-11-01T22:53:54.644Z,100277.03
2022-11-01T22:55:25.798Z,100274.50
2022-11-01T22:56:29.942Z,100268.53
2022-11-01T22:57:35.859Z,100268.70
2022-11-01T22:58:40.769Z,100269.72
2022-11-01T22:59:49.468Z,100273.41
2022-11-01T23:00:53.578Z,100272.98
2022-11-01T23:01:59.456Z,100280.55
2022-11-01T23:03:20.568Z,100281.52
2022-11-01T23:04:22.548Z,100277.20
2022-11-01T23:05:26.899Z,100271.28
2022-11-01T23:06:35.023Z,100265.23
2022-11-01T23:09:01.294Z,100266.59
2022-11-01T23:10:07.383Z,100269.47
2022-11-01T23:11:12.952Z,100274.75
2022-11-01T23:12:18.635Z,100271.28
2022-11-01T23:13:38.886Z,100266.97
2022-11-01T23:14:43.542Z,100268.78
2022-11-01T23:15:45.747Z,100260.11
2022-11-01T23:16:49.298Z,100251.33
2022-11-01T23:17:53.374Z,100257.41
2022-11-01T23:18:58.788Z,100250.44
2022-11-01T23:20:01.690Z,100246.87
2022-11-01T23:21:08.183Z,100255.59
2022-11-01T23:22:16.876Z,100256.57
2022-11-01T23:23:20.082Z,100260.92
2022-11-01T23:24:22.114Z,100256.48
2022-11-01T23:25:25.124Z,100258.05
2022-11-01T23:26:30.225Z,100249.42
2022-11-01T23:27:32.170Z,100249.42
2022-11-01T23:28:34.849Z,100247.64
2022-11-01T23:29:36.985Z,100252.80
2022-11-01T23:30:41.254Z,100247.64
2022-11-01T23:31:43.226Z,100251.07
2022-11-01T23:32:45.108Z,100245.83
2022-11-01T23:33:48.825Z,100244.02
2022-11-01T23:34:54.532Z,100241.30
2022-11-01T23:36:00.272Z,100244.77
2022-11-01T23:37:02.221Z,100241.17
2022-11-01T23:38:08.068Z,100245.31
2022-11-01T23:39:12.370Z,100245.31
2022-11-01T23:40:19.883Z,100240.87
2022-11-01T23:41:25.447Z,100234.61
2022-11-01T23:42:27.368Z,100248.61
2022-11-01T23:43:33.022Z,100245.02
2022-11-01T23:44:38.631Z,100237.14
2022-11-01T23:45:41.270Z,100241.41
2022-11-01T23:46:43.640Z,100242.25
2022-11-01T23:47:45.832Z,100239.50
2022-11-01T23:48:48.618Z,100230.06
2022-11-01T23:49:59.632Z,100244.16
2022-11-01T23:51:02.737Z,100230.11
2022-11-01T23:52:08.988Z,100233.09
2022-11-01T23:53:14.151Z,100235.26
2022-11-01T23:54:29.573Z,100227.65
2022-11-01T23:55:35.002Z,100231.45
2022-11-01T23:56:37.796Z,100227.91
2022-11-01T23:57:42.238Z,100225.37
2022-11-01T23:58:44.345Z,100226.33
2022-11-01T23:59:50.800Z,100226.45
